• Join FlightAware (Why Join?)
  • Login
  • US Flag 
10:04AM EST


 

Airport Tracker/Info


-or-


 

Live Flight TrackerFlight Track Log ✈ N779NC ✈ 01-Jul-2013 ✈ KATL - KSAV

Flight Track Log - Related Links

Times and Time Zones

All times are in EDT time to prevent confusion due to time zone crossing. See the N779NC flight status page for this flight to view local times or setup timezone preferences in your user account.

Time Position Orientation Groundspeed Altitude Reporting Facility
EDT Latitude Longitude Course Direction KTS MPH feet Rate Location/Type
08:38AM 33.6333 -84.3500 128° Southeast 227 261 2,700  Level Atlanta TRACON
08:39AM 33.6000 -84.2667 116° Southeast 274 315 5,400 2,520 Climbing Atlanta TRACON
08:40AM 33.5333 -84.2500 168° South 267 307 7,800 2,160 Climbing Atlanta TRACON
08:41AM 33.2476 -84.2658 163° South  Level FlightAware Approximate
08:41AM 33.4667 -84.2333 168° South 282 325 9,600  Level Atlanta TRACON
08:42AM 33.1504 -84.2304 163° South  Level FlightAware Approximate
08:42AM 33.3833 -84.2167 171° South 303 349 10,500  Level Atlanta TRACON
08:43AM 33.0579 -84.1868 128° Southeast  Level FlightAware Approximate
08:43AM 33.3078 -84.1978 168° South 319 367 11,600  Level Atlanta Center
08:44AM 33.2203 -84.1456 153° Southeast 342 394 13,600 1,980 Climbing Atlanta Center
08:45AM 33.1431 -84.0661 139° Southeast 349 402 15,600 1,740 Climbing Atlanta Center
08:46AM 33.0636 -83.9819 138° Southeast 367 422 17,100 1,800 Climbing Atlanta Center
08:47AM 32.9822 -83.9000 140° Southeast 379 436 19,300 1,920 Climbing Atlanta Center
08:48AM 32.9028 -83.8211 140° Southeast 379 436 21,000 1,500 Climbing Atlanta Center
08:49AM 32.8169 -83.7447 143° Southeast 379 436 22,300 960 Climbing Atlanta Center
08:50AM 32.7311 -83.6611 141° Southeast 384 442 23,000 300 Climbing Atlanta Center
08:51AM 32.6472 -83.5431 130° Southeast 405 466 23,000  Level Atlanta Center
08:52AM 32.6236 -83.3903 100° East 419 482 23,000  Level Atlanta Center
08:53AM 32.6061 -83.2400 98° East 440 506 23,000  Level Atlanta Center
08:54AM 32.5883 -83.0847 98° East 456 525 23,000  Level Atlanta Center
08:55AM 32.5767 -82.9369 95° East 456 525 23,000  Level Atlanta Center
08:56AM 32.5606 -82.7992 98° East 461 531 23,000  Level Atlanta Center
08:57AM 32.5319 -82.6567 103° East 456 525 23,000 -300 Level Atlanta Center
08:58AM 32.5011 -82.5144 104° East 449 517 22,500 -1,200 Descending Atlanta Center
08:59AM 32.4742 -82.3794 103° East 431 496 20,600 -2,220 Descending Atlanta Center
09:01AM 32.4150 -82.1642 108° East 391 450 16,400 -2,760 Descending Jacksonville Center
09:02AM 32.3767 -82.0342 109° East 376 433 13,000 -2,640 Descending Jacksonville Center
09:03AM 32.3422 -81.9139 109° East 382 440 11,200 -1,200 Descending Jacksonville Center
09:04AM 32.3247 -81.8108 101° East 362 417 10,600 -900 Descending Jacksonville Center
09:05AM 32.3278 -81.6978 88° East 322 371 9,400 -1,680 Descending Jacksonville Center
09:06AM 32.3333 -81.6142 85° East 297 342 7,300 -2,160 Descending Jacksonville Center
09:07AM 32.3322 -81.5133 91° East 279 321 5,100 -1,980 Descending Jacksonville Center
09:08AM 32.3314 -81.4369 91° East 259 298 3,400 -1,440 Descending Jacksonville Center
09:09AM 32.3325 -81.3558 89° East 248 285 2,300 -660 Descending Jacksonville Center
09:10AM 32.3336 -81.2747 89° East 229 264 2,100 -240 Descending Jacksonville Center